• Join FlightAware (Why Join?)
  • Login
  • US Flag 
10:57AM EDT


 

Airport Tracker/Info


-or-


 

Live Flight TrackerFlight Track Log ✈ AWE1788 ✈ 08-Jul-2013 ✈ KCLT - KORD

Flight Track Log - Related Links

Times and Time Zones

All times are in EDT time to prevent confusion due to time zone crossing. See the AWE1788 flight status page for this flight to view local times or setup timezone preferences in your user account.

Time Position Orientation Groundspeed Altitude Reporting Facility
EDT Latitude Longitude Course Direction KTS MPH feet Rate Location/Type
11:18PM 35.1978 -80.9658 52° Northeast 167 192 2,000  Level Atlanta Center
11:19PM 35.1600 -81.0383 238° Southwest 220 253 3,300 1,260 Climbing Atlanta Center
11:21PM 35.1167 -81.2036 270° West  Level FlightAware Approximate
11:21PM 35.2292 -81.0564 348° North 300 345 5,400  Level Atlanta Center
11:22PM 35.2174 -81.2167 North  Level FlightAware Approximate
11:22PM 35.3058 -81.0281 17° North 287 330 7,800  Level Atlanta Center
11:23PM 35.2945 -81.1492 52° Northeast  Level FlightAware Approximate
11:23PM 35.3803 -81.0000 17° North 282 325 10,100  Level Atlanta Center
11:24PM 35.4650 -80.9711 16° North 291 335 11,100 900 Climbing Atlanta Center
11:25PM 35.5536 -81.0061 342° North 325 374 11,900 1,260 Climbing Atlanta Center
11:26PM 35.6347 -81.0900 320° Northwest 356 410 13,700 1,680 Climbing Atlanta Center
11:27PM 35.7203 -81.1739 321° Northwest 385 443 15,300 1,620 Climbing Atlanta Center
11:28PM 35.8058 -81.2606 321° Northwest 395 455 17,000 1,320 Climbing Atlanta Center
11:29PM 35.8911 -81.3500 320° Northwest 401 461 18,000 1,140 Climbing Atlanta Center
11:30PM 35.9786 -81.4419 320° Northwest 406 467 19,300 1,260 Climbing Atlanta Center
11:31PM 36.0703 -81.5317 322° Northwest 416 479 20,600 1,140 Climbing Atlanta Center
11:32PM 36.1575 -81.6267 319° Northwest 416 479 21,600 960 Climbing Atlanta Center
11:33PM 36.2511 -81.7217 321° Northwest 416 479 22,600 1,020 Climbing Atlanta Center
11:34PM 36.3533 -81.8242 321° Northwest 428 493 23,700 840 Climbing Atlanta Center
11:36PM 36.5383 -82.0181 320° Northwest 445 512 25,200 720 Climbing Indianapolis Center
11:37PM 36.6344 -82.1183 320° Northwest 451 519 26,000 780 Climbing Indianapolis Center
11:38PM 36.7472 -82.2375 320° Northwest 456 525 26,900 720 Climbing Indianapolis Center
11:39PM 36.8464 -82.3403 320° Northwest 464 534 27,500 780 Climbing Indianapolis Center
11:40PM 36.9428 -82.4422 320° Northwest 459 528 28,500 1,080 Climbing Indianapolis Center
11:41PM 37.0381 -82.5425 320° Northwest 453 521 29,800 1,020 Climbing Indianapolis Center
11:42PM 37.1314 -82.6428 319° Northwest 446 513 30,600 780 Climbing Indianapolis Center
11:43PM 37.2253 -82.7433 320° Northwest 447 514 31,500 660 Climbing Indianapolis Center
11:44PM 37.3356 -82.8617 320° Northwest 449 517 32,000 240 Climbing Indianapolis Center
11:45PM 37.4392 -82.9517 325° Northwest 454 522 32,000 60 Level Indianapolis Center
11:46PM 37.5428 -83.0394 326° Northwest 449 517 32,200 480 Climbing Indianapolis Center
11:47PM 37.6481 -83.1283 326° Northwest 454 522 33,100 720 Climbing Indianapolis Center
11:48PM 37.7508 -83.2172 326° Northwest 448 516 33,700 420 Climbing Indianapolis Center
11:49PM 37.8550 -83.3075 326° Northwest 453 521 34,000 120 Climbing Indianapolis Center
11:50PM 37.9594 -83.3956 326° Northwest 453 521 34,000  Level Indianapolis Center
11:51PM 38.0628 -83.4875 325° Northwest 453 521 34,000  Level Indianapolis Center
11:52PM 38.1861 -83.5931 326° Northwest 457 526 34,000  Level Indianapolis Center
11:53PM 38.2911 -83.6828 326° Northwest 455 524 34,000  Level Indianapolis Center
11:54PM 38.3956 -83.7744 325° Northwest 455 524 34,000  Level Indianapolis Center
11:55PM 38.5014 -83.8678 325° Northwest 461 531 34,000  Level Indianapolis Center
11:56PM 38.6050 -83.9597 325° Northwest 453 521 34,000  Level Indianapolis Center
11:57PM 38.7033 -84.0450 326° Northwest 452 520 34,000 -60 Level Indianapolis Center
11:58PM 38.8061 -84.1347 326° Northwest 446 513 33,900 -60 Descending Indianapolis Center
11:59PM 38.9078 -84.2269 325° Northwest 445 512 33,900  Level Indianapolis Center
12:00AM 39.0092 -84.3172 325° Northwest 440 506 34,000  Climbing Indianapolis Center
12:01AM 39.1289 -84.4231 326° Northwest 439 505 34,000  Level Indianapolis Center
12:02AM 39.2314 -84.5164 325° Northwest 445 512 34,000  Level Indianapolis Center
12:03AM 39.3331 -84.6094 325° Northwest 444 511 34,000  Level Indianapolis Center
12:04AM 39.4339 -84.7003 325° Northwest 440 506 34,000  Level Indianapolis Center
12:05AM 39.5361 -84.7919 325° Northwest 442 509 34,000  Level Indianapolis Center
12:06AM 39.6372 -84.8853 325° Northwest 441 507 34,000  Level Indianapolis Center
12:07AM 39.7344 -84.9742 325° Northwest 440 506 34,000  Level Indianapolis Center
12:08AM 39.8328 -85.0628 325° Northwest 435 501 34,000  Level Indianapolis Center
12:09AM 39.9308 -85.1547 324° Northwest 436 502 34,000  Level Indianapolis Center
12:10AM 40.0300 -85.2464 325° Northwest 439 505 34,000  Level Indianapolis Center
12:11AM 40.1292 -85.3378 325° Northwest 440 506 34,000  Level Indianapolis Center
12:12AM 40.2256 -85.4336 323° Northwest 440 506 34,000  Level Indianapolis Center
12:14AM 40.3267 -85.5689 314° West 437 503 34,000  Level Indianapolis Center
12:14AM 40.3939 -85.6583 315° West 439 505 34,000  Level Chicago Center
12:15AM 40.4781 -85.7711 314° West 437 503 34,000  Level Chicago Center
12:16AM 40.5617 -85.8875 313° West 438 504 34,000 -180 Level Chicago Center
12:17AM 40.6458 -86.0047 313° West 442 509 33,700 -600 Descending Chicago Center
12:18AM 40.7236 -86.1144 313° West 437 503 32,800 -960 Descending Chicago Center
12:19AM 40.8075 -86.2297 314° West 434 499 31,800 -1,020 Descending Chicago Center
12:20AM 40.8917 -86.3478 313° West 438 504 30,800 -1,920 Descending Chicago Center
12:21AM 40.9789 -86.4694 314° West 448 516 28,000 -2,700 Descending Chicago Center
12:22AM 41.0667 -86.5903 314° West 449 517 25,400 -2,520 Descending Chicago Center
12:23AM 41.1514 -86.7086 314° West 450 518 22,900 -2,700 Descending Chicago Center
12:24AM 41.2453 -86.8414 313° West 427 491 20,000 -2,580 Descending Chicago Center
12:25AM 41.3233 -86.9522 313° West 418 481 17,700 -2,340 Descending Chicago Center
12:26AM 41.3994 -87.0622 313° West 410 472 15,400 -2,040 Descending Chicago Center
12:27AM 41.4711 -87.1633 313° West 391 450 13,700 -1,680 Descending Chicago Center
12:28AM 41.5389 -87.2603 313° West 368 423 12,000 -1,380 Descending Chicago Center
12:30AM 41.6006 -87.3475 313° West 335 386 11,000 -540 Descending Chicago Center
12:31AM 41.6503 -87.4208 312° West 274 315 11,000 -600 Level Chicago Center
12:32AM 41.7022 -87.4944 313° West 272 313 9,900 -1,560 Descending Chicago Center
12:33AM 41.7692 -87.5228 342° North 274 315 7,900 -1,440 Descending Chicago Center
12:34AM 41.8583 -87.5244 359° North 269 310 7,000 -1,200 Descending Chicago Center
12:35AM 41.9294 -87.5244 360° North 261 300 5,600 -1,380 Descending Chicago Center
12:36AM 41.9661 -87.5928 306° West 247 284 4,200 -960 Descending Chicago Center
12:37AM 41.9697 -87.6717 274° West 223 257 3,700 -720 Descending Chicago Center
12:38AM 41.9692 -87.7389 269° West 199 229 2,800 -900 Descending Chicago Center
12:39AM 41.9689 -87.7964 270° West 169 194 1,900 -900 Descending Chicago Center
12:40AM 41.9686 -87.8539 270° West 158 182 1,100 -840 Descending Chicago Center
12:42AM 41.9667 -87.9000 304° West  Level FlightAware Approximate